createdAt,value
2023-02-11T00:00:16.540Z,4.74
2023-02-11T00:02:46.127Z,4.71
2023-02-11T00:05:14.435Z,4.69
2023-02-11T00:07:41.020Z,4.68
2023-02-11T00:10:08.213Z,4.59
2023-02-11T00:12:36.352Z,4.67
2023-02-11T00:15:03.920Z,4.65
2023-02-11T00:17:30.417Z,4.68
2023-02-11T00:19:56.863Z,4.72
2023-02-11T00:22:23.552Z,4.59
2023-02-11T00:24:50.066Z,4.64
2023-02-11T00:27:16.872Z,4.61
2023-02-11T00:29:44.715Z,4.63
2023-02-11T00:32:11.694Z,4.67
2023-02-11T00:34:38.609Z,4.66
2023-02-11T00:37:05.906Z,4.64
2023-02-11T00:39:33.435Z,4.59
2023-02-11T00:42:00.110Z,4.58
2023-02-11T00:44:27.411Z,4.58
2023-02-11T00:46:54.289Z,4.59
2023-02-11T00:49:20.764Z,4.60
2023-02-11T00:51:48.294Z,4.54
2023-02-11T00:54:14.884Z,4.59
2023-02-11T00:56:41.506Z,4.61
2023-02-11T00:59:08.088Z,4.58
2023-02-11T01:01:35.493Z,4.64
2023-02-11T01:04:02.028Z,4.54
2023-02-11T01:06:28.474Z,4.50
2023-02-11T01:08:54.894Z,4.57
2023-02-11T01:11:21.550Z,4.53
2023-02-11T01:13:49.168Z,4.51
2023-02-11T01:16:15.938Z,4.56
2023-02-11T01:18:44.275Z,4.56
2023-02-11T01:21:11.925Z,4.53
2023-02-11T01:23:38.424Z,4.42
2023-02-11T01:26:05.314Z,4.44
2023-02-11T01:28:31.892Z,4.41
2023-02-11T01:31:01.048Z,4.39
2023-02-11T01:33:28.276Z,4.42
2023-02-11T01:35:54.736Z,4.40
2023-02-11T01:38:26.159Z,4.38
2023-02-11T01:41:02.593Z,4.42
2023-02-11T01:43:36.999Z,4.44
2023-02-11T01:46:14.585Z,4.48
2023-02-11T01:48:45.512Z,4.42
2023-02-11T01:51:27.301Z,4.48
2023-02-11T01:54:15.685Z,4.42
2023-02-11T01:57:05.328Z,4.50
2023-02-11T01:59:38.184Z,4.54
2023-02-11T02:02:09.518Z,4.53
2023-02-11T02:04:49.047Z,4.49
2023-02-11T02:07:26.296Z,4.54
2023-02-11T02:10:00.355Z,4.48
2023-02-11T02:12:28.473Z,4.52
2023-02-11T02:15:31.558Z,4.53
2023-02-11T02:18:06.503Z,4.53
2023-02-11T02:20:39.203Z,4.57
2023-02-11T02:23:24.931Z,4.60
2023-02-11T02:26:17.624Z,4.56
2023-02-11T02:29:09.305Z,4.61
2023-02-11T02:31:41.767Z,4.65
2023-02-11T02:34:18.338Z,4.67
2023-02-11T02:36:54.244Z,4.59
2023-02-11T02:39:26.724Z,4.69
2023-02-11T02:41:54.308Z,4.69
2023-02-11T02:44:21.637Z,4.71
2023-02-11T02:46:48.100Z,4.69
2023-02-11T02:49:16.375Z,4.72
2023-02-11T02:51:53.643Z,4.76
2023-02-11T02:54:48.194Z,4.79
2023-02-11T02:57:38.679Z,4.77
2023-02-11T03:00:11.253Z,4.90
2023-02-11T03:03:02.236Z,4.94
2023-02-11T03:05:47.035Z,4.86
2023-02-11T03:08:38.747Z,4.91
2023-02-11T03:11:06.407Z,4.83
2023-02-11T03:13:35.511Z,4.88
2023-02-11T03:16:08.785Z,4.87
2023-02-11T03:18:37.131Z,4.89
2023-02-11T03:21:07.042Z,4.87
2023-02-11T03:23:39.943Z,4.92
2023-02-11T03:26:17.256Z,4.94
2023-02-11T03:28:56.083Z,4.83
2023-02-11T03:31:34.126Z,4.87
2023-02-11T03:34:25.065Z,4.94
2023-02-11T03:36:56.944Z,4.89
2023-02-11T03:39:29.395Z,4.94
2023-02-11T03:41:58.600Z,4.91
2023-02-11T03:44:30.757Z,4.96
2023-02-11T03:46:57.969Z,4.88
2023-02-11T03:49:27.855Z,4.91
2023-02-11T03:51:56.457Z,4.86
2023-02-11T03:54:30.486Z,4.78
2023-02-11T03:57:00.328Z,4.85
2023-02-11T03:59:28.514Z,4.87
2023-02-11T04:01:55.225Z,4.84
2023-02-11T04:04:21.852Z,4.84
2023-02-11T04:06:48.281Z,4.82
2023-02-11T04:09:15.213Z,4.86
2023-02-11T04:11:41.856Z,4.83
2023-02-11T04:14:08.595Z,4.79
2023-02-11T04:16:35.208Z,4.74
2023-02-11T04:19:02.713Z,4.79
2023-02-11T04:21:29.160Z,4.80
2023-02-11T04:23:55.581Z,4.78
2023-02-11T04:26:21.993Z,4.83
2023-02-11T04:28:48.476Z,4.83
2023-02-11T04:31:15.004Z,4.83
2023-02-11T04:33:41.635Z,4.93
2023-02-11T04:36:08.423Z,4.81
2023-02-11T04:38:34.848Z,4.73
2023-02-11T04:41:01.303Z,4.86
2023-02-11T04:43:27.739Z,4.80
2023-02-11T04:45:58.614Z,4.86
2023-02-11T04:48:25.774Z,4.90
2023-02-11T04:50:52.185Z,4.87
2023-02-11T04:53:18.616Z,4.88
2023-02-11T04:55:45.282Z,4.87
2023-02-11T04:58:11.916Z,4.89
2023-02-11T05:00:38.393Z,4.89
2023-02-11T05:03:04.784Z,5.01
2023-02-11T05:05:31.190Z,4.93
2023-02-11T05:07:57.580Z,4.99
2023-02-11T05:10:24.077Z,4.89
2023-02-11T05:12:50.541Z,4.87
2023-02-11T05:15:17.057Z,4.97
2023-02-11T05:17:43.514Z,4.94
2023-02-11T05:20:10.761Z,4.93
2023-02-11T05:22:37.179Z,4.98
2023-02-11T05:25:03.796Z,4.98
2023-02-11T05:27:30.188Z,4.99
2023-02-11T05:29:56.592Z,4.95
2023-02-11T05:32:23.055Z,4.96
2023-02-11T05:34:49.478Z,5.03
2023-02-11T05:37:16.190Z,4.99
2023-02-11T05:39:42.659Z,5.01
2023-02-11T05:42:09.541Z,5.12
2023-02-11T05:44:36.137Z,5.08
2023-02-11T05:47:02.966Z,5.03
2023-02-11T05:49:29.559Z,5.07
2023-02-11T05:51:56.095Z,4.95
2023-02-11T05:54:22.518Z,5.09
2023-02-11T05:56:48.945Z,4.93
2023-02-11T05:59:15.451Z,5.09
2023-02-11T06:01:42.823Z,5.16
2023-02-11T06:04:09.680Z,5.14
2023-02-11T06:06:36.089Z,5.06
2023-02-11T06:09:02.710Z,5.13
2023-02-11T06:11:29.107Z,4.95
2023-02-11T06:13:55.936Z,4.96
2023-02-11T06:16:22.431Z,5.01
2023-02-11T06:18:48.868Z,5.14
2023-02-11T06:21:15.273Z,5.04
2023-02-11T06:23:41.963Z,5.07
2023-02-11T06:26:20.401Z,5.19
2023-02-11T06:28:47.149Z,5.14
2023-02-11T06:31:14.459Z,5.14
2023-02-11T06:33:41.439Z,5.14
2023-02-11T06:36:25.841Z,5.16
2023-02-11T06:38:52.505Z,5.10
2023-02-11T06:41:23.036Z,5.07
2023-02-11T06:43:49.852Z,5.22
2023-02-11T06:46:16.425Z,5.20
2023-02-11T06:48:44.965Z,5.16
2023-02-11T06:51:13.337Z,5.07
2023-02-11T06:53:45.306Z,5.12
2023-02-11T06:56:16.169Z,5.19
2023-02-11T06:58:42.750Z,5.24
2023-02-11T07:01:12.398Z,5.15
2023-02-11T07:03:43.025Z,5.23
2023-02-11T07:06:14.120Z,5.14
2023-02-11T07:08:43.436Z,5.20
2023-02-11T07:11:19.043Z,5.20
2023-02-11T07:13:46.006Z,5.16
2023-02-11T07:16:14.991Z,5.24
2023-02-11T07:18:42.115Z,5.25
2023-02-11T07:21:10.993Z,5.23
2023-02-11T07:23:39.469Z,5.30
2023-02-11T07:26:07.601Z,5.22
2023-02-11T07:28:35.539Z,5.17
2023-02-11T07:31:22.593Z,5.30
2023-02-11T07:33:49.634Z,5.30
2023-02-11T07:36:16.625Z,5.38
2023-02-11T07:38:43.715Z,5.28
2023-02-11T07:41:13.649Z,5.25
2023-02-11T07:43:41.209Z,5.25
2023-02-11T07:46:13.044Z,5.24
2023-02-11T07:48:39.730Z,5.26
2023-02-11T07:51:09.917Z,5.34
2023-02-11T07:53:36.649Z,5.38
2023-02-11T07:56:05.089Z,5.30
2023-02-11T07:58:31.536Z,5.33
2023-02-11T08:01:03.147Z,5.29
2023-02-11T08:03:29.754Z,5.38
2023-02-11T08:05:56.527Z,5.38
2023-02-11T08:08:23.206Z,5.36
2023-02-11T08:10:49.943Z,5.36
2023-02-11T08:13:16.528Z,5.39
2023-02-11T08:15:43.876Z,5.39
2023-02-11T08:18:10.601Z,5.35
2023-02-11T08:20:37.139Z,5.34
2023-02-11T08:23:06.468Z,5.43
2023-02-11T08:25:33.291Z,5.46
2023-02-11T08:27:59.899Z,5.38
2023-02-11T08:30:27.536Z,5.39
2023-02-11T08:32:54.060Z,5.41
2023-02-11T08:35:20.506Z,5.44
2023-02-11T08:37:46.914Z,5.47
2023-02-11T08:40:13.714Z,5.51
2023-02-11T08:42:40.149Z,5.58
2023-02-11T08:45:07.195Z,5.55
2023-02-11T08:47:33.657Z,5.49
2023-02-11T08:50:00.140Z,5.54
2023-02-11T08:52:27.327Z,5.57
2023-02-11T08:54:53.807Z,5.55
2023-02-11T08:57:20.238Z,5.58
2023-02-11T08:59:46.739Z,5.64
2023-02-11T09:02:14.132Z,5.74
2023-02-11T09:04:41.099Z,5.64
2023-02-11T09:07:07.597Z,5.67
2023-02-11T09:09:34.007Z,5.69
2023-02-11T09:12:03.161Z,5.64
2023-02-11T09:14:29.620Z,5.69
2023-02-11T09:16:56.140Z,5.72
2023-02-11T09:19:23.172Z,5.77
2023-02-11T09:21:49.860Z,5.65
2023-02-11T09:24:16.472Z,5.71
2023-02-11T09:26:44.444Z,5.68
2023-02-11T09:29:12.725Z,5.76
2023-02-11T09:31:39.402Z,5.76
2023-02-11T09:34:06.478Z,5.71
2023-02-11T09:36:37.545Z,5.78
2023-02-11T09:39:06.121Z,5.78
2023-02-11T09:41:48.307Z,5.82
2023-02-11T09:44:22.276Z,5.82
2023-02-11T09:46:59.541Z,5.78
2023-02-11T09:49:35.378Z,5.78
2023-02-11T09:52:13.861Z,5.74
2023-02-11T09:55:06.235Z,5.74
2023-02-11T09:57:35.514Z,5.73
2023-02-11T10:00:17.005Z,5.79
2023-02-11T10:03:34.429Z,5.84
2023-02-11T10:06:14.492Z,5.84
2023-02-11T10:08:59.805Z,5.74
2023-02-11T10:11:44.034Z,5.88
2023-02-11T10:14:23.835Z,5.91
2023-02-11T10:17:02.908Z,5.93
2023-02-11T10:19:42.763Z,5.90
2023-02-11T10:22:22.243Z,5.86
2023-02-11T10:24:53.803Z,5.85
2023-02-11T10:27:24.388Z,5.91
2023-02-11T10:30:02.584Z,5.92
2023-02-11T10:33:03.206Z,5.87
2023-02-11T10:35:30.014Z,5.97
2023-02-11T10:37:56.690Z,5.95
2023-02-11T10:40:26.055Z,5.94
2023-02-11T10:42:59.277Z,5.95
2023-02-11T10:45:39.098Z,6.07
2023-02-11T10:48:26.511Z,6.01
2023-02-11T10:51:17.440Z,6.02
2023-02-11T10:53:45.816Z,6.02
2023-02-11T10:56:25.380Z,6.04
2023-02-11T10:59:02.704Z,6.05
2023-02-11T11:01:43.567Z,6.08
2023-02-11T11:04:29.784Z,6.04
2023-02-11T11:07:17.648Z,6.10
2023-02-11T11:09:51.456Z,6.08
2023-02-11T11:12:34.979Z,6.06
2023-02-11T11:15:11.233Z,6.07
2023-02-11T11:17:38.376Z,6.14
2023-02-11T11:20:18.843Z,6.17
2023-02-11T11:22:47.183Z,6.16
2023-02-11T11:25:42.836Z,6.20
2023-02-11T11:28:21.650Z,6.17
2023-02-11T11:30:49.117Z,6.26
2023-02-11T11:33:35.886Z,6.28
2023-02-11T11:36:08.736Z,6.25
2023-02-11T11:38:38.510Z,6.28
2023-02-11T11:41:25.140Z,6.33
2023-02-11T11:44:20.842Z,6.35
2023-02-11T11:46:53.553Z,6.37
2023-02-11T11:49:28.422Z,6.40
2023-02-11T11:52:10.227Z,6.44
2023-02-11T11:54:37.331Z,6.55
2023-02-11T11:57:15.365Z,6.54
2023-02-11T11:59:42.405Z,6.59
2023-02-11T12:02:33.847Z,6.60
2023-02-11T12:05:14.364Z,6.62
2023-02-11T12:07:58.689Z,6.57
2023-02-11T12:10:55.586Z,6.63
2023-02-11T12:13:41.366Z,6.61
2023-02-11T12:16:23.698Z,6.67
2023-02-11T12:19:26.995Z,6.67
2023-02-11T12:22:23.244Z,6.66
2023-02-11T12:25:26.622Z,6.65
2023-02-11T12:28:01.948Z,6.66
2023-02-11T12:30:59.321Z,6.73
2023-02-11T12:33:47.504Z,6.75
2023-02-11T12:36:14.021Z,6.78
2023-02-11T12:38:58.261Z,6.74
2023-02-11T12:41:58.651Z,6.78
2023-02-11T12:44:55.873Z,6.77
2023-02-11T12:47:40.217Z,6.80
2023-02-11T12:50:24.733Z,6.86
2023-02-11T12:53:10.006Z,6.80
2023-02-11T12:55:45.805Z,6.79
2023-02-11T12:58:21.759Z,6.81
2023-02-11T13:00:57.888Z,6.85
2023-02-11T13:03:38.524Z,6.82
2023-02-11T13:06:09.318Z,6.83
2023-02-11T13:08:40.988Z,6.81
2023-02-11T13:11:14.819Z,6.90
2023-02-11T13:14:15.874Z,6.96
2023-02-11T13:16:50.892Z,6.92
2023-02-11T13:19:40.817Z,6.91
2023-02-11T13:22:16.479Z,6.91
2023-02-11T13:25:02.226Z,6.89
2023-02-11T13:27:44.408Z,7.05
2023-02-11T13:30:35.219Z,7.01
2023-02-11T13:33:04.214Z,7.02
2023-02-11T13:35:34.981Z,7.05
2023-02-11T13:38:04.617Z,7.09
2023-02-11T13:40:39.641Z,7.05
2023-02-11T13:43:19.902Z,6.97
2023-02-11T13:45:49.085Z,6.98
2023-02-11T13:48:17.611Z,6.99
2023-02-11T13:50:56.798Z,6.92
2023-02-11T13:53:24.156Z,7.01
2023-02-11T13:55:54.428Z,6.96
2023-02-11T13:58:26.754Z,6.94
2023-02-11T14:00:53.588Z,6.94
2023-02-11T14:03:38.894Z,6.99
2023-02-11T14:06:26.980Z,6.95
2023-02-11T14:09:17.143Z,7.00
2023-02-11T14:11:51.955Z,6.93
2023-02-11T14:14:24.539Z,6.93
2023-02-11T14:17:00.311Z,6.95
2023-02-11T14:19:43.697Z,6.95
2023-02-11T14:22:10.144Z,6.95
2023-02-11T14:24:37.239Z,6.95
2023-02-11T14:27:10.780Z,7.00
2023-02-11T14:29:43.934Z,7.02
2023-02-11T14:32:38.066Z,6.89
2023-02-11T14:35:20.569Z,6.98
2023-02-11T14:38:02.126Z,7.05
2023-02-11T14:40:57.248Z,6.99
2023-02-11T14:43:51.444Z,6.95
2023-02-11T14:46:19.787Z,7.01
2023-02-11T14:48:53.368Z,6.95
2023-02-11T14:51:23.574Z,6.95
2023-02-11T14:53:52.737Z,6.97
2023-02-11T14:56:24.554Z,7.00
2023-02-11T14:58:51.891Z,6.94
2023-02-11T15:01:26.025Z,6.99
2023-02-11T15:03:54.545Z,7.05
2023-02-11T15:06:32.600Z,7.00
2023-02-11T15:09:40.125Z,7.00
2023-02-11T15:12:15.673Z,7.16
2023-02-11T15:14:48.070Z,7.10
2023-02-11T15:17:22.194Z,7.11
2023-02-11T15:19:53.156Z,7.07
2023-02-11T15:22:24.700Z,7.18
2023-02-11T15:25:06.300Z,7.16
2023-02-11T15:27:41.366Z,7.12
2023-02-11T15:30:33.845Z,7.19
2023-02-11T15:33:03.849Z,7.19
2023-02-11T15:35:37.933Z,7.16
2023-02-11T15:38:05.251Z,7.17
2023-02-11T15:40:34.358Z,7.20
2023-02-11T15:43:09.548Z,7.20
2023-02-11T15:45:40.258Z,7.14
2023-02-11T15:48:17.561Z,7.20
2023-02-11T15:50:51.588Z,7.23
2023-02-11T15:53:27.284Z,7.27
2023-02-11T15:56:03.324Z,7.18
2023-02-11T15:58:35.416Z,7.24
2023-02-11T16:01:03.217Z,7.20
2023-02-11T16:03:32.606Z,7.19
2023-02-11T16:06:23.783Z,7.19
2023-02-11T16:09:08.252Z,7.22
2023-02-11T16:11:55.453Z,7.26
2023-02-11T16:14:27.915Z,7.29
2023-02-11T16:16:58.237Z,7.27
2023-02-11T16:19:26.382Z,7.26
2023-02-11T16:21:54.836Z,7.20
2023-02-11T16:24:27.931Z,7.31
2023-02-11T16:26:57.368Z,7.18
2023-02-11T16:29:36.461Z,7.17
2023-02-11T16:32:10.700Z,7.29
2023-02-11T16:34:37.277Z,7.23
2023-02-11T16:37:05.372Z,7.31
2023-02-11T16:39:32.474Z,7.19
2023-02-11T16:41:59.984Z,7.22
2023-02-11T16:44:26.670Z,7.29
2023-02-11T16:46:54.860Z,7.22
2023-02-11T16:49:24.428Z,7.40
2023-02-11T16:52:01.350Z,7.32
2023-02-11T16:54:29.550Z,7.37
2023-02-11T16:56:56.864Z,7.28
2023-02-11T16:59:23.869Z,7.24
2023-02-11T17:01:52.833Z,7.34
2023-02-11T17:04:28.264Z,7.46
2023-02-11T17:06:57.231Z,7.37
2023-02-11T17:09:30.240Z,7.39
2023-02-11T17:11:57.628Z,7.40
2023-02-11T17:14:24.536Z,7.48
2023-02-11T17:16:51.033Z,7.47
2023-02-11T17:19:21.070Z,7.47
2023-02-11T17:21:50.846Z,7.41
2023-02-11T17:24:18.244Z,7.42
2023-02-11T17:26:46.051Z,7.40
2023-02-11T17:29:16.689Z,7.49
2023-02-11T17:31:44.097Z,7.49
2023-02-11T17:34:11.530Z,7.45
2023-02-11T17:36:38.186Z,7.41
2023-02-11T17:39:07.796Z,7.50
2023-02-11T17:41:34.791Z,7.51
2023-02-11T17:44:01.473Z,7.54
2023-02-11T17:46:28.589Z,7.38
2023-02-11T17:48:58.575Z,7.42
2023-02-11T17:51:29.103Z,7.48
2023-02-11T17:53:58.415Z,7.50
2023-02-11T17:56:25.263Z,7.52
2023-02-11T17:58:53.000Z,7.45
2023-02-11T18:01:20.295Z,7.40
2023-02-11T18:03:47.488Z,7.42
2023-02-11T18:06:14.426Z,7.42
2023-02-11T18:08:42.956Z,7.52
2023-02-11T18:11:10.981Z,7.56
2023-02-11T18:13:37.426Z,7.54
2023-02-11T18:16:05.797Z,7.56
2023-02-11T18:18:32.226Z,7.55
2023-02-11T18:21:00.717Z,7.52
2023-02-11T18:23:27.973Z,7.56
2023-02-11T18:25:54.420Z,7.50
2023-02-11T18:28:21.046Z,7.55
2023-02-11T18:30:47.972Z,7.48
2023-02-11T18:33:14.624Z,7.57
2023-02-11T18:35:44.936Z,7.55
2023-02-11T18:38:11.636Z,7.53
2023-02-11T18:40:41.825Z,7.51
2023-02-11T18:43:08.230Z,7.58
2023-02-11T18:45:34.742Z,7.68
2023-02-11T18:48:03.568Z,7.60
2023-02-11T18:50:30.958Z,7.53
2023-02-11T18:52:57.348Z,7.59
2023-02-11T18:55:25.810Z,7.62
2023-02-11T18:57:52.889Z,7.65
2023-02-11T19:00:20.620Z,7.61
2023-02-11T19:02:47.195Z,7.57
2023-02-11T19:05:13.791Z,7.58
2023-02-11T19:07:40.404Z,7.50
2023-02-11T19:10:07.541Z,7.51
2023-02-11T19:12:34.230Z,7.57
2023-02-11T19:15:00.858Z,7.49
2023-02-11T19:17:27.523Z,7.62
2023-02-11T19:19:54.027Z,7.50
2023-02-11T19:22:20.464Z,7.49
2023-02-11T19:24:47.251Z,7.52
2023-02-11T19:27:13.695Z,7.52
2023-02-11T19:29:40.436Z,7.61
2023-02-11T19:32:07.054Z,7.52
2023-02-11T19:34:33.737Z,7.54
2023-02-11T19:37:01.521Z,7.49
2023-02-11T19:39:28.043Z,7.49
2023-02-11T19:41:54.499Z,7.52
2023-02-11T19:44:20.968Z,7.40
2023-02-11T19:46:48.757Z,7.49
2023-02-11T19:49:22.658Z,7.39
2023-02-11T19:51:50.387Z,7.46
2023-02-11T19:54:17.098Z,7.56
2023-02-11T19:56:44.887Z,7.49
2023-02-11T19:59:11.791Z,7.45
2023-02-11T20:01:38.487Z,7.47
2023-02-11T20:04:05.813Z,7.46
2023-02-11T20:06:33.285Z,7.51
2023-02-11T20:09:06.399Z,7.49
2023-02-11T20:11:33.884Z,7.52
2023-02-11T20:14:00.633Z,7.52
2023-02-11T20:16:46.196Z,7.51
2023-02-11T20:19:17.507Z,7.41
2023-02-11T20:21:46.810Z,7.54
2023-02-11T20:24:14.182Z,7.55
2023-02-11T20:26:42.622Z,7.56
2023-02-11T20:29:09.709Z,7.48
2023-02-11T20:31:36.534Z,7.55
2023-02-11T20:34:03.087Z,7.57
2023-02-11T20:36:32.271Z,7.52
2023-02-11T20:39:00.013Z,7.49
2023-02-11T20:41:34.113Z,7.54
2023-02-11T20:44:03.549Z,7.49
2023-02-11T20:46:32.876Z,7.45
2023-02-11T20:49:02.733Z,7.49
2023-02-11T20:51:33.949Z,7.49
2023-02-11T20:54:00.900Z,7.47
2023-02-11T20:56:31.082Z,7.46
2023-02-11T20:58:59.263Z,7.42
2023-02-11T21:01:40.325Z,7.44
2023-02-11T21:04:11.930Z,7.44
2023-02-11T21:06:43.944Z,7.40
2023-02-11T21:09:13.785Z,7.29
2023-02-11T21:11:40.835Z,7.28
2023-02-11T21:14:07.750Z,7.26
2023-02-11T21:16:34.240Z,7.30
2023-02-11T21:19:03.269Z,7.24
2023-02-11T21:21:30.121Z,7.18
2023-02-11T21:23:56.793Z,7.25
2023-02-11T21:26:23.314Z,7.34
2023-02-11T21:28:50.024Z,7.28
2023-02-11T21:31:23.124Z,7.37
2023-02-11T21:33:50.964Z,7.33
2023-02-11T21:36:17.831Z,7.28
2023-02-11T21:38:44.621Z,7.34
2023-02-11T21:41:11.853Z,7.34
2023-02-11T21:43:38.337Z,7.28
2023-02-11T21:46:10.343Z,7.31
2023-02-11T21:48:37.420Z,7.39
2023-02-11T21:51:06.681Z,7.34
2023-02-11T21:53:33.452Z,7.40
2023-02-11T21:56:04.761Z,7.39
2023-02-11T21:58:31.381Z,7.33
2023-02-11T22:00:57.795Z,7.44
2023-02-11T22:03:24.248Z,7.40
2023-02-11T22:05:50.676Z,7.47
2023-02-11T22:08:20.105Z,7.35
2023-02-11T22:10:46.735Z,7.43
2023-02-11T22:13:13.172Z,7.35
2023-02-11T22:15:39.705Z,7.38
2023-02-11T22:18:06.261Z,7.36
2023-02-11T22:20:32.662Z,7.46
2023-02-11T22:22:59.133Z,7.49
2023-02-11T22:25:25.839Z,7.48
2023-02-11T22:27:52.240Z,7.44
2023-02-11T22:30:19.065Z,7.48
2023-02-11T22:32:46.596Z,7.36
2023-02-11T22:35:13.124Z,7.37
2023-02-11T22:37:39.590Z,7.36
2023-02-11T22:40:06.740Z,7.40
2023-02-11T22:42:33.161Z,7.26
2023-02-11T22:44:59.542Z,7.42
2023-02-11T22:47:25.927Z,7.37
2023-02-11T22:49:52.338Z,7.43
2023-02-11T22:52:18.773Z,7.38
2023-02-11T22:54:45.260Z,7.33
2023-02-11T22:57:12.011Z,7.29
2023-02-11T22:59:38.452Z,7.27
2023-02-11T23:02:05.012Z,7.35
2023-02-11T23:04:31.420Z,7.27
2023-02-11T23:06:57.817Z,7.35
2023-02-11T23:09:24.799Z,7.34
2023-02-11T23:11:54.209Z,7.31
2023-02-11T23:14:23.009Z,7.24
2023-02-11T23:16:50.708Z,7.29
2023-02-11T23:19:17.314Z,7.32
2023-02-11T23:21:44.195Z,7.34
2023-02-11T23:24:14.829Z,7.21
2023-02-11T23:26:42.624Z,7.16
2023-02-11T23:29:09.848Z,7.31
2023-02-11T23:31:39.833Z,7.26
2023-02-11T23:34:07.626Z,7.27
2023-02-11T23:36:34.470Z,7.39
2023-02-11T23:39:00.940Z,7.34
2023-02-11T23:41:28.722Z,7.27
2023-02-11T23:43:57.831Z,7.31
2023-02-11T23:46:26.125Z,7.19
2023-02-11T23:48:53.031Z,7.29
2023-02-11T23:51:19.969Z,7.28
2023-02-11T23:53:49.058Z,7.26
2023-02-11T23:56:19.081Z,7.32
2023-02-11T23:58:48.742Z,7.30
